AAL1157 KMIA-MMUN
Flight info
| Callsign | AAL1157 |
|---|---|
| Flight time | 1h 29m |
| Altitude | 32000 |
| Route | GLADZ4 LULLS Y196 CANOA UB879 NOSAT NOSAT1B |
| Aircraft | B738/M-SDE2E3FGHIRWXY/LB1 |
Departure
| Time | 2026-05-04 16:54 |
|---|---|
| Airport | Miami International Airport (KMIA) |
Arrival
| Time | 2026-05-04 18:23 |
|---|---|
| Airport | Cancún International Airport (MMUN) |
| Time | Latitude | Longitude | Altitude | Speed | Heading |
|---|---|---|---|---|---|
| 2026-05-04 16:33 | 25.79843 | -80.27094 | 22 ft | 0 kts | 295° |
| 2026-05-04 16:42 | 25.79828 | -80.27067 | 24 ft | 3 kts | 321° |
| 2026-05-04 16:43 | 25.79795 | -80.27058 | 23 ft | 3 kts | 38° |
| 2026-05-04 16:43 | 25.79787 | -80.27066 | 22 ft | 2 kts | 48° |
| 2026-05-04 16:46 | 25.79848 | -80.27009 | 22 ft | 9 kts | 28° |
| 2026-05-04 16:47 | 25.79956 | -80.27055 | 20 ft | 14 kts | 306° |
| 2026-05-04 16:47 | 25.80002 | -80.27158 | 22 ft | 11 kts | 278° |
| 2026-05-04 16:48 | 25.80065 | -80.27463 | 17 ft | 26 kts | 269° |
| 2026-05-04 16:48 | 25.80061 | -80.27643 | 15 ft | 18 kts | 269° |
| 2026-05-04 16:49 | 25.80053 | -80.27911 | 11 ft | 20 kts | 267° |
| 2026-05-04 16:49 | 25.80039 | -80.28255 | 14 ft | 21 kts | 268° |
| 2026-05-04 16:50 | 25.80024 | -80.28630 | 19 ft | 24 kts | 268° |
| 2026-05-04 16:50 | 25.80006 | -80.29037 | 20 ft | 25 kts | 267° |
| 2026-05-04 16:51 | 25.79989 | -80.29450 | 14 ft | 28 kts | 268° |
| 2026-05-04 16:51 | 25.79982 | -80.29639 | 13 ft | 22 kts | 267° |
| 2026-05-04 16:51 | 25.79972 | -80.29908 | 10 ft | 11 kts | 272° |
| 2026-05-04 16:52 | 25.80012 | -80.30095 | 15 ft | 12 kts | 289° |
| 2026-05-04 16:52 | 25.80064 | -80.30127 | 14 ft | 8 kts | 25° |
| 2026-05-04 16:53 | 25.80086 | -80.29788 | 12 ft | 64 kts | 87° |
| 2026-05-04 16:53 | 25.80239 | -80.26796 | 414 ft | 160 kts | 79° |
| 2026-05-04 16:54 | 25.80334 | -80.25953 | 712 ft | 168 kts | 81° |
| 2026-05-04 16:55 | 25.80568 | -80.20229 | 2505 ft | 221 kts | 83° |
| 2026-05-04 16:55 | 25.81269 | -80.16650 | 3115 ft | 258 kts | 46° |
| 2026-05-04 16:56 | 25.84513 | -80.15588 | 4547 ft | 256 kts | 353° |
| 2026-05-04 16:56 | 25.90061 | -80.15786 | 6388 ft | 271 kts | 345° |
| 2026-05-04 16:57 | 25.91870 | -80.16433 | 6920 ft | 273 kts | 337° |
| 2026-05-04 16:57 | 25.95459 | -80.17817 | 8110 ft | 273 kts | 339° |
| 2026-05-04 16:58 | 25.99227 | -80.21971 | 9908 ft | 269 kts | 279° |
| 2026-05-04 16:58 | 25.99438 | -80.24015 | 10683 ft | 266 kts | 274° |
| 2026-05-04 16:59 | 25.99825 | -80.28136 | 12018 ft | 272 kts | 272° |
| 2026-05-04 17:00 | 25.99771 | -80.36606 | 14046 ft | 275 kts | 269° |
| 2026-05-04 17:00 | 25.99081 | -80.43609 | 14471 ft | 334 kts | 245° |
| 2026-05-04 17:01 | 25.96423 | -80.47760 | 16041 ft | 334 kts | 234° |
| 2026-05-04 17:01 | 25.93463 | -80.51836 | 17201 ft | 343 kts | 234° |
| 2026-05-04 17:02 | 25.90459 | -80.56018 | 18417 ft | 349 kts | 234° |
| 2026-05-04 17:02 | 25.87419 | -80.60298 | 19421 ft | 356 kts | 234° |
| 2026-05-04 17:03 | 25.85887 | -80.62462 | 19941 ft | 358 kts | 234° |
| 2026-05-04 17:03 | 25.84339 | -80.64649 | 20457 ft | 361 kts | 234° |
| 2026-05-04 17:03 | 25.81207 | -80.69071 | 21483 ft | 367 kts | 234° |
| 2026-05-04 17:04 | 25.78240 | -80.73752 | 22344 ft | 375 kts | 249° |
| 2026-05-04 17:04 | 25.76730 | -80.79222 | 23678 ft | 374 kts | 255° |
| 2026-05-04 17:05 | 25.75246 | -80.84851 | 24270 ft | 385 kts | 255° |
| 2026-05-04 17:05 | 25.73694 | -80.90549 | 25141 ft | 385 kts | 255° |
| 2026-05-04 17:06 | 25.72138 | -80.96231 | 26061 ft | 385 kts | 255° |
| 2026-05-04 17:06 | 25.71362 | -80.99066 | 26581 ft | 383 kts | 255° |
| 2026-05-04 17:07 | 25.69836 | -81.04635 | 27415 ft | 385 kts | 255° |
| 2026-05-04 17:07 | 25.69308 | -81.06563 | 27649 ft | 387 kts | 255° |
| 2026-05-04 17:07 | 25.68266 | -81.10364 | 28072 ft | 392 kts | 255° |
| 2026-05-04 17:07 | 25.67466 | -81.13281 | 28144 ft | 400 kts | 255° |
| 2026-05-04 17:08 | 25.66651 | -81.16247 | 28382 ft | 403 kts | 255° |
| 2026-05-04 17:08 | 25.64965 | -81.22178 | 29138 ft | 406 kts | 250° |
| 2026-05-04 17:08 | 25.63541 | -81.24913 | 29471 ft | 414 kts | 236° |
| 2026-05-04 17:09 | 25.61543 | -81.27250 | 29917 ft | 420 kts | 228° |
| 2026-05-04 17:09 | 25.59367 | -81.29412 | 30278 ft | 421 kts | 227° |
| 2026-05-04 17:09 | 25.57147 | -81.31560 | 30490 ft | 425 kts | 226° |
| 2026-05-04 17:10 | 25.52666 | -81.35898 | 30909 ft | 430 kts | 227° |
| 2026-05-04 17:10 | 25.45921 | -81.42536 | 31591 ft | 435 kts | 227° |
| 2026-05-04 17:11 | 25.43668 | -81.44765 | 31896 ft | 434 kts | 227° |
| 2026-05-04 17:11 | 25.41439 | -81.46970 | 32028 ft | 436 kts | 227° |
| 2026-05-04 17:12 | 25.34663 | -81.53666 | 32029 ft | 432 kts | 227° |
| 2026-05-04 17:13 | 25.23484 | -81.64695 | 32048 ft | 430 kts | 227° |
| 2026-05-04 17:14 | 25.16659 | -81.71209 | 32033 ft | 443 kts | 218° |
| 2026-05-04 17:14 | 25.13816 | -81.72675 | 32065 ft | 458 kts | 205° |
| 2026-05-04 17:15 | 25.04601 | -81.75902 | 32042 ft | 466 kts | 204° |
| 2026-05-04 17:16 | 24.92276 | -81.80259 | 32045 ft | 466 kts | 204° |
| 2026-05-04 17:17 | 24.79946 | -81.84696 | 32044 ft | 465 kts | 204° |
| 2026-05-04 17:18 | 24.67655 | -81.89104 | 32050 ft | 464 kts | 204° |
| 2026-05-04 17:19 | 24.55369 | -81.93502 | 32042 ft | 464 kts | 204° |
| 2026-05-04 17:19 | 24.49549 | -81.96282 | 32052 ft | 447 kts | 223° |
| 2026-05-04 17:20 | 24.45677 | -82.01331 | 32053 ft | 433 kts | 246° |
| 2026-05-04 17:20 | 24.41826 | -82.10255 | 32038 ft | 433 kts | 248° |
| 2026-05-04 17:21 | 24.36668 | -82.22205 | 32040 ft | 433 kts | 247° |
| 2026-05-04 17:22 | 24.34052 | -82.28165 | 32042 ft | 433 kts | 247° |
| 2026-05-04 17:23 | 24.28808 | -82.40075 | 32049 ft | 433 kts | 247° |
| 2026-05-04 17:24 | 24.24888 | -82.48960 | 32045 ft | 433 kts | 247° |
| 2026-05-04 17:25 | 24.19629 | -82.60857 | 32028 ft | 433 kts | 247° |
| 2026-05-04 17:26 | 24.14368 | -82.72728 | 32045 ft | 434 kts | 247° |
| 2026-05-04 17:27 | 24.07747 | -82.87624 | 32044 ft | 435 kts | 247° |
| 2026-05-04 17:28 | 24.02439 | -82.99535 | 32040 ft | 435 kts | 247° |
| 2026-05-04 17:29 | 23.92473 | -83.16107 | 32045 ft | 440 kts | 237° |
| 2026-05-04 17:31 | 23.83304 | -83.29543 | 32045 ft | 442 kts | 237° |
| 2026-05-04 17:32 | 23.74119 | -83.43004 | 32043 ft | 442 kts | 237° |
| 2026-05-04 17:33 | 23.66781 | -83.53732 | 32044 ft | 442 kts | 237° |
| 2026-05-04 17:34 | 23.59409 | -83.64480 | 32035 ft | 442 kts | 237° |
| 2026-05-04 17:35 | 23.50168 | -83.77910 | 32045 ft | 444 kts | 237° |
| 2026-05-04 17:36 | 23.46483 | -83.83257 | 32039 ft | 444 kts | 237° |
| 2026-05-04 17:36 | 23.42772 | -83.88638 | 32041 ft | 444 kts | 237° |
| 2026-05-04 17:37 | 23.39057 | -83.94017 | 32035 ft | 440 kts | 237° |
| 2026-05-04 17:37 | 23.35423 | -83.99268 | 32034 ft | 431 kts | 237° |
| 2026-05-04 17:38 | 23.31864 | -84.04413 | 32045 ft | 430 kts | 237° |
| 2026-05-04 17:38 | 23.28263 | -84.09617 | 32044 ft | 430 kts | 237° |
| 2026-05-04 17:39 | 23.22860 | -84.17410 | 32046 ft | 433 kts | 237° |
| 2026-05-04 17:39 | 23.19226 | -84.22643 | 32034 ft | 434 kts | 237° |
| 2026-05-04 17:40 | 23.16195 | -84.27004 | 32033 ft | 435 kts | 237° |
| 2026-05-04 17:40 | 23.12535 | -84.32265 | 32032 ft | 436 kts | 237° |
| 2026-05-04 17:41 | 23.08867 | -84.37533 | 32047 ft | 437 kts | 237° |
| 2026-05-04 17:41 | 23.05193 | -84.42803 | 32045 ft | 437 kts | 237° |
| 2026-05-04 17:42 | 23.01548 | -84.48028 | 32044 ft | 437 kts | 237° |
| 2026-05-04 17:42 | 22.97882 | -84.53277 | 32029 ft | 436 kts | 237° |
| 2026-05-04 17:43 | 22.94208 | -84.58529 | 32037 ft | 436 kts | 237° |
| 2026-05-04 17:43 | 22.90535 | -84.63772 | 32039 ft | 437 kts | 237° |
| 2026-05-04 17:44 | 22.86854 | -84.69023 | 32037 ft | 437 kts | 237° |
| 2026-05-04 17:44 | 22.83175 | -84.74268 | 32041 ft | 437 kts | 237° |
| 2026-05-04 17:45 | 22.79515 | -84.79480 | 32033 ft | 437 kts | 237° |
| 2026-05-04 17:45 | 22.75828 | -84.84726 | 32032 ft | 436 kts | 237° |
| 2026-05-04 17:46 | 22.72146 | -84.89959 | 32034 ft | 436 kts | 237° |
| 2026-05-04 17:46 | 22.68464 | -84.95188 | 32021 ft | 436 kts | 237° |
| 2026-05-04 17:47 | 22.64843 | -85.00326 | 32033 ft | 437 kts | 237° |
| 2026-05-04 17:47 | 22.61150 | -85.05560 | 32034 ft | 437 kts | 237° |
| 2026-05-04 17:48 | 22.57470 | -85.10814 | 32039 ft | 438 kts | 237° |
| 2026-05-04 17:48 | 22.53801 | -85.16088 | 32039 ft | 438 kts | 238° |
| 2026-05-04 17:49 | 22.50123 | -85.21370 | 32039 ft | 439 kts | 237° |
| 2026-05-04 17:49 | 22.46466 | -85.26609 | 32038 ft | 439 kts | 237° |
| 2026-05-04 17:50 | 22.42783 | -85.31880 | 32035 ft | 439 kts | 237° |
| 2026-05-04 17:50 | 22.39098 | -85.37147 | 32027 ft | 439 kts | 237° |
| 2026-05-04 17:51 | 22.35412 | -85.42412 | 32025 ft | 439 kts | 237° |
| 2026-05-04 17:51 | 22.31719 | -85.47683 | 32034 ft | 439 kts | 237° |
| 2026-05-04 17:52 | 22.28046 | -85.52920 | 32030 ft | 439 kts | 237° |
| 2026-05-04 17:52 | 22.26193 | -85.55562 | 31667 ft | 445 kts | 237° |
| 2026-05-04 17:52 | 22.24319 | -85.58231 | 31007 ft | 445 kts | 237° |
| 2026-05-04 17:53 | 22.22452 | -85.60893 | 30207 ft | 446 kts | 237° |
| 2026-05-04 17:53 | 22.20581 | -85.63571 | 29283 ft | 447 kts | 237° |
| 2026-05-04 17:53 | 22.18702 | -85.66263 | 28387 ft | 448 kts | 237° |
| 2026-05-04 17:53 | 22.16838 | -85.68930 | 27787 ft | 442 kts | 237° |
| 2026-05-04 17:54 | 22.14992 | -85.71568 | 27154 ft | 437 kts | 237° |
| 2026-05-04 17:54 | 22.13170 | -85.74172 | 26552 ft | 432 kts | 237° |
| 2026-05-04 17:54 | 22.11365 | -85.76751 | 25952 ft | 428 kts | 237° |
| 2026-05-04 17:54 | 22.09583 | -85.79297 | 25361 ft | 424 kts | 237° |
| 2026-05-04 17:55 | 22.07831 | -85.81800 | 24756 ft | 421 kts | 237° |
| 2026-05-04 17:55 | 22.06071 | -85.84313 | 24142 ft | 419 kts | 236° |
| 2026-05-04 17:55 | 22.04318 | -85.86814 | 23537 ft | 417 kts | 236° |
| 2026-05-04 17:55 | 22.02574 | -85.89303 | 22854 ft | 414 kts | 236° |
| 2026-05-04 17:56 | 22.00846 | -85.91765 | 22462 ft | 405 kts | 236° |
| 2026-05-04 17:56 | 21.99181 | -85.94134 | 22291 ft | 391 kts | 236° |
| 2026-05-04 17:56 | 21.97564 | -85.96433 | 22124 ft | 379 kts | 236° |
| 2026-05-04 17:56 | 21.95945 | -85.98627 | 21925 ft | 370 kts | 230° |
| 2026-05-04 17:57 | 21.94133 | -86.00464 | 21695 ft | 366 kts | 225° |
| 2026-05-04 17:57 | 21.92212 | -86.02236 | 21472 ft | 373 kts | 224° |
| 2026-05-04 17:57 | 21.90209 | -86.04055 | 21227 ft | 379 kts | 224° |
| 2026-05-04 17:57 | 21.88197 | -86.05890 | 20967 ft | 378 kts | 224° |
| 2026-05-04 17:58 | 21.86205 | -86.07726 | 20711 ft | 375 kts | 224° |
| 2026-05-04 17:58 | 21.84243 | -86.09550 | 20461 ft | 372 kts | 224° |
| 2026-05-04 17:58 | 21.82293 | -86.11374 | 20212 ft | 369 kts | 224° |
| 2026-05-04 17:58 | 21.80363 | -86.13186 | 19963 ft | 368 kts | 224° |
| 2026-05-04 17:59 | 21.78442 | -86.14991 | 19725 ft | 366 kts | 224° |
| 2026-05-04 17:59 | 21.76520 | -86.16797 | 19481 ft | 365 kts | 224° |
| 2026-05-04 17:59 | 21.72700 | -86.20386 | 18989 ft | 364 kts | 224° |
| 2026-05-04 18:00 | 21.70805 | -86.22164 | 18745 ft | 358 kts | 224° |
| 2026-05-04 18:00 | 21.68947 | -86.23906 | 18508 ft | 351 kts | 224° |
| 2026-05-04 18:00 | 21.67129 | -86.25610 | 18267 ft | 344 kts | 224° |
| 2026-05-04 18:00 | 21.65342 | -86.27284 | 17992 ft | 337 kts | 224° |
| 2026-05-04 18:01 | 21.63585 | -86.28932 | 17650 ft | 333 kts | 224° |
| 2026-05-04 18:01 | 21.61847 | -86.30563 | 17329 ft | 329 kts | 224° |
| 2026-05-04 18:01 | 21.60134 | -86.32171 | 17017 ft | 325 kts | 224° |
| 2026-05-04 18:02 | 21.56787 | -86.35311 | 16411 ft | 318 kts | 224° |
| 2026-05-04 18:02 | 21.55131 | -86.36863 | 16114 ft | 315 kts | 224° |
| 2026-05-04 18:02 | 21.53487 | -86.38403 | 15813 ft | 312 kts | 224° |
| 2026-05-04 18:02 | 21.51798 | -86.39854 | 15524 ft | 311 kts | 218° |
| 2026-05-04 18:03 | 21.50007 | -86.41149 | 15237 ft | 309 kts | 216° |
| 2026-05-04 18:03 | 21.48205 | -86.42400 | 14942 ft | 308 kts | 216° |
| 2026-05-04 18:03 | 21.46410 | -86.43649 | 14652 ft | 306 kts | 216° |
| 2026-05-04 18:03 | 21.44630 | -86.44899 | 14362 ft | 305 kts | 217° |
| 2026-05-04 18:04 | 21.42865 | -86.46150 | 14058 ft | 304 kts | 217° |
| 2026-05-04 18:04 | 21.41103 | -86.47406 | 13750 ft | 304 kts | 217° |
| 2026-05-04 18:04 | 21.37601 | -86.49907 | 13133 ft | 301 kts | 217° |
| 2026-05-04 18:05 | 21.35863 | -86.51148 | 12841 ft | 299 kts | 217° |
| 2026-05-04 18:05 | 21.34136 | -86.52382 | 12553 ft | 298 kts | 217° |
| 2026-05-04 18:05 | 21.32416 | -86.53612 | 12270 ft | 296 kts | 216° |
| 2026-05-04 18:05 | 21.30704 | -86.54836 | 11990 ft | 295 kts | 216° |
| 2026-05-04 18:06 | 21.27316 | -86.57257 | 11438 ft | 293 kts | 216° |
| 2026-05-04 18:06 | 21.25617 | -86.58471 | 11162 ft | 293 kts | 216° |
| 2026-05-04 18:06 | 21.23923 | -86.59681 | 10885 ft | 292 kts | 216° |
| 2026-05-04 18:07 | 21.22227 | -86.60892 | 10579 ft | 293 kts | 216° |
| 2026-05-04 18:07 | 21.20535 | -86.62101 | 10296 ft | 291 kts | 216° |
| 2026-05-04 18:07 | 21.18853 | -86.63301 | 10023 ft | 289 kts | 216° |
| 2026-05-04 18:07 | 21.17184 | -86.64492 | 9729 ft | 287 kts | 216° |
| 2026-05-04 18:08 | 21.15525 | -86.65675 | 9434 ft | 285 kts | 216° |
| 2026-05-04 18:08 | 21.13884 | -86.66846 | 9153 ft | 282 kts | 215° |
| 2026-05-04 18:08 | 21.12255 | -86.68007 | 8882 ft | 279 kts | 215° |
| 2026-05-04 18:08 | 21.10665 | -86.69140 | 8616 ft | 277 kts | 215° |
| 2026-05-04 18:09 | 21.07987 | -86.71921 | 8075 ft | 269 kts | 250° |
| 2026-05-04 18:09 | 21.08199 | -86.75771 | 7493 ft | 266 kts | 296° |
| 2026-05-04 18:10 | 21.09166 | -86.77469 | 7162 ft | 268 kts | 303° |
| 2026-05-04 18:10 | 21.10229 | -86.79117 | 6819 ft | 270 kts | 304° |
| 2026-05-04 18:10 | 21.11300 | -86.80780 | 6481 ft | 271 kts | 303° |
| 2026-05-04 18:10 | 21.12373 | -86.82455 | 6122 ft | 273 kts | 303° |
| 2026-05-04 18:11 | 21.13444 | -86.84148 | 5745 ft | 275 kts | 303° |
| 2026-05-04 18:11 | 21.14513 | -86.85851 | 5388 ft | 276 kts | 303° |
| 2026-05-04 18:11 | 21.15584 | -86.87562 | 5031 ft | 276 kts | 303° |
| 2026-05-04 18:11 | 21.16635 | -86.89243 | 4783 ft | 273 kts | 303° |
| 2026-05-04 18:12 | 21.17683 | -86.90921 | 4532 ft | 269 kts | 303° |
| 2026-05-04 18:12 | 21.18719 | -86.92583 | 4282 ft | 266 kts | 303° |
| 2026-05-04 18:12 | 21.19744 | -86.94225 | 4037 ft | 263 kts | 303° |
| 2026-05-04 18:12 | 21.20755 | -86.95845 | 3831 ft | 258 kts | 303° |
| 2026-05-04 18:13 | 21.21734 | -86.97415 | 3670 ft | 247 kts | 303° |
| 2026-05-04 18:13 | 21.22665 | -86.98909 | 3483 ft | 236 kts | 303° |
| 2026-05-04 18:13 | 21.24441 | -87.01759 | 3106 ft | 230 kts | 303° |
| 2026-05-04 18:14 | 21.25324 | -87.03174 | 3039 ft | 229 kts | 303° |
| 2026-05-04 18:14 | 21.26216 | -87.04604 | 2986 ft | 232 kts | 303° |
| 2026-05-04 18:14 | 21.27120 | -87.06055 | 2929 ft | 234 kts | 303° |
| 2026-05-04 18:15 | 21.28464 | -87.09162 | 2769 ft | 233 kts | 267° |
| 2026-05-04 18:15 | 21.26808 | -87.11969 | 2680 ft | 233 kts | 216° |
| 2026-05-04 18:15 | 21.25455 | -87.12938 | 2628 ft | 234 kts | 213° |
| 2026-05-04 18:16 | 21.24087 | -87.13883 | 2523 ft | 234 kts | 213° |
| 2026-05-04 18:16 | 21.22633 | -87.14641 | 2356 ft | 233 kts | 191° |
| 2026-05-04 18:16 | 21.21045 | -87.14493 | 2229 ft | 231 kts | 157° |
| 2026-05-04 18:17 | 21.18839 | -87.12139 | 1989 ft | 221 kts | 122° |
| 2026-05-04 18:17 | 21.18014 | -87.10779 | 1976 ft | 216 kts | 122° |
| 2026-05-04 18:17 | 21.16363 | -87.08079 | 1952 ft | 217 kts | 122° |
| 2026-05-04 18:18 | 21.15553 | -87.06767 | 1923 ft | 203 kts | 122° |
| 2026-05-04 18:18 | 21.14801 | -87.05551 | 1889 ft | 189 kts | 122° |
| 2026-05-04 18:18 | 21.14080 | -87.04392 | 1865 ft | 185 kts | 122° |
| 2026-05-04 18:18 | 21.13371 | -87.03253 | 1818 ft | 181 kts | 122° |
| 2026-05-04 18:19 | 21.12012 | -87.01078 | 1686 ft | 176 kts | 123° |
| 2026-05-04 18:19 | 21.11334 | -86.99986 | 1568 ft | 175 kts | 123° |
| 2026-05-04 18:19 | 21.10684 | -86.98946 | 1462 ft | 168 kts | 122° |
| 2026-05-04 18:20 | 21.10037 | -86.97909 | 1346 ft | 169 kts | 122° |
| 2026-05-04 18:20 | 21.09364 | -86.96869 | 1304 ft | 170 kts | 123° |
| 2026-05-04 18:20 | 21.08714 | -86.95847 | 1296 ft | 159 kts | 122° |
| 2026-05-04 18:20 | 21.08109 | -86.94871 | 1295 ft | 157 kts | 121° |
| 2026-05-04 18:21 | 21.07506 | -86.93895 | 1113 ft | 155 kts | 122° |
| 2026-05-04 18:21 | 21.06926 | -86.92958 | 932 ft | 147 kts | 122° |
| 2026-05-04 18:21 | 21.06368 | -86.92058 | 738 ft | 142 kts | 122° |
| 2026-05-04 18:21 | 21.05827 | -86.91186 | 555 ft | 141 kts | 122° |
| 2026-05-04 18:22 | 21.05285 | -86.90306 | 372 ft | 142 kts | 121° |
| 2026-05-04 18:22 | 21.04739 | -86.89426 | 178 ft | 141 kts | 123° |
| 2026-05-04 18:22 | 21.04202 | -86.88571 | 38 ft | 131 kts | 123° |
| 2026-05-04 18:22 | 21.03778 | -86.87895 | 38 ft | 87 kts | 124° |
| 2026-05-04 18:23 | 21.03531 | -86.87490 | 39 ft | 43 kts | 124° |
| 2026-05-04 18:23 | 21.03454 | -86.87360 | 38 ft | 0 kts | 129° |
| 2026-05-04 18:23 | 21.03452 | -86.87357 | 38 ft | 4 kts | 130° |